Time;durP1;ratioP1;P1;durP2;ratioP2;P2;SDS_P1;SDS_P2;PMS_P1;PMS_P2;Temp;Humidity;BMP_temperature;BMP_pressure;BME280_temperature;BME280_humidity;BME280_pressure;Samples;Min_cycle;Max_cycle;Signal;HPM_P1;HPM_P2
2022/11/21 00:00:30;;;;;;;17.23;3.93;;;8.60;99.90;;;;;;5081623;28;20425;-68
2022/11/21 00:03:00;;;;;;;12.97;3.73;;;8.60;99.90;;;;;;5080761;28;20468;-68
2022/11/21 00:05:27;;;;;;;18.20;4.73;;;8.60;99.90;;;;;;5081164;28;20469;-69
2022/11/21 00:07:55;;;;;;;19.17;4.33;;;8.60;99.90;;;;;;5080816;28;20450;-69
2022/11/21 00:10:22;;;;;;;15.13;3.93;;;8.60;99.90;;;;;;5080599;28;20460;-69
2022/11/21 00:12:53;;;;;;;13.40;4.37;;;8.60;99.90;;;;;;5079242;28;20871;-69
2022/11/21 00:15:20;;;;;;;16.47;5.10;;;8.60;99.90;;;;;;5080554;28;20463;-69
2022/11/21 00:17:47;;;;;;;13.00;4.60;;;8.60;99.90;;;;;;5079586;28;20448;-69
2022/11/21 00:20:15;;;;;;;15.50;4.77;;;8.60;99.90;;;;;;5080859;28;20816;-68
2022/11/21 00:22:42;;;;;;;16.80;4.30;;;8.60;99.90;;;;;;5082646;28;20465;-68
2022/11/21 00:25:10;;;;;;;18.63;4.83;;;8.50;99.90;;;;;;5082349;28;20476;-68
2022/11/21 00:27:36;;;;;;;10.77;4.20;;;8.50;99.90;;;;;;5082144;28;20440;-68
2022/11/21 00:30:04;;;;;;;17.27;4.13;;;8.50;99.90;;;;;;5084226;28;20447;-68
2022/11/21 00:32:31;;;;;;;10.70;4.10;;;8.60;99.90;;;;;;5083911;28;20469;-68
2022/11/21 00:34:58;;;;;;;17.43;4.40;;;8.50;99.90;;;;;;5085344;28;20425;-67
2022/11/21 00:37:26;;;;;;;15.20;4.30;;;8.50;99.90;;;;;;5087693;28;20461;-68
2022/11/21 00:39:53;;;;;;;16.20;5.63;;;8.50;99.90;;;;;;5090034;28;21210;-69
2022/11/21 00:42:19;;;;;;;15.53;4.97;;;8.50;99.90;;;;;;5091368;28;20462;-68
2022/11/21 00:44:46;;;;;;;13.97;4.10;;;8.50;99.90;;;;;;5095589;28;20449;-69
2022/11/21 00:47:13;;;;;;;21.60;6.10;;;8.50;99.90;;;;;;5092602;28;20476;-69
2022/11/21 00:49:40;;;;;;;20.33;4.47;;;8.50;99.90;;;;;;5089559;28;20447;-69
2022/11/21 00:52:06;;;;;;;15.03;4.60;;;8.50;99.90;;;;;;5091648;28;20445;-68
2022/11/21 00:54:34;;;;;;;13.23;5.00;;;8.50;99.90;;;;;;5095476;28;20487;-68
2022/11/21 00:57:01;;;;;;;12.50;5.37;;;8.40;99.90;;;;;;5096304;28;20425;-68
2022/11/21 00:59:28;;;;;;;13.10;4.47;;;8.40;99.90;;;;;;5097955;28;20452;-68
2022/11/21 01:01:55;;;;;;;14.20;5.37;;;8.50;99.90;;;;;;5097798;28;20445;-68
2022/11/21 01:04:22;;;;;;;13.00;4.20;;;8.50;99.90;;;;;;5091862;28;20444;-68
2022/11/21 01:06:48;;;;;;;12.10;4.33;;;8.40;99.90;;;;;;5093892;28;20468;-68
2022/11/21 01:09:15;;;;;;;16.77;4.70;;;8.40;99.90;;;;;;5089353;28;20449;-68
2022/11/21 01:11:43;;;;;;;15.13;5.50;;;8.40;99.90;;;;;;5085321;28;20455;-68
2022/11/21 01:14:10;;;;;;;18.00;4.47;;;8.40;99.90;;;;;;5082541;28;20790;-68
2022/11/21 01:16:37;;;;;;;17.67;5.50;;;8.40;99.90;;;;;;5084137;28;20448;-68
2022/11/21 01:19:03;;;;;;;15.53;4.47;;;8.40;99.90;;;;;;5087129;28;20449;-68
2022/11/21 01:21:32;;;;;;;16.10;4.63;;;8.40;99.90;;;;;;5086461;28;20444;-68
2022/11/21 01:24:00;;;;;;;17.53;6.03;;;8.40;99.90;;;;;;5087971;28;20473;-67
2022/11/21 01:26:28;;;;;;;15.13;3.87;;;8.40;99.90;;;;;;5091364;28;20466;-68
2022/11/21 01:28:57;;;;;;;21.43;4.67;;;8.40;99.90;;;;;;5090682;28;20444;-68
2022/11/21 01:31:26;;;;;;;21.53;4.80;;;8.40;99.90;;;;;;5088998;28;20444;-68
2022/11/21 01:33:53;;;;;;;12.20;4.77;;;8.30;99.90;;;;;;5084127;28;20468;-68
2022/11/21 01:36:22;;;;;;;12.73;5.70;;;8.40;99.90;;;;;;5079361;28;20463;-68
2022/11/21 01:38:50;;;;;;;16.43;4.50;;;8.30;99.90;;;;;;5076266;28;20429;-68
2022/11/21 01:41:19;;;;;;;22.07;5.57;;;8.30;99.90;;;;;;5074852;28;20440;-68
2022/11/21 01:43:46;;;;;;;17.87;5.13;;;8.30;99.90;;;;;;5073501;28;20476;-68
2022/11/21 01:46:17;;;;;;;19.43;5.13;;;8.30;99.90;;;;;;5073695;28;20845;-68
2022/11/21 01:48:48;;;;;;;14.07;4.37;;;8.30;99.90;;;;;;5073535;28;20938;-68
2022/11/21 01:51:20;;;;;;;16.27;5.03;;;8.30;99.90;;;;;;5073794;28;20430;-68
2022/11/21 01:53:58;;;;;;;10.90;4.40;;;8.30;99.90;;;;;;5073740;28;20465;-68
2022/11/21 01:56:26;;;;;;;25.07;6.47;;;8.30;99.90;;;;;;5074619;28;20429;-68
2022/11/21 01:58:56;;;;;;;11.30;3.97;;;8.20;99.90;;;;;;5073833;28;20445;-68
2022/11/21 02:01:24;;;;;;;17.03;4.77;;;8.20;99.90;;;;;;5074093;28;20932;-68
2022/11/21 02:03:52;;;;;;;13.63;4.47;;;8.10;99.90;;;;;;5073391;28;20461;-68
2022/11/21 02:06:19;;;;;;;17.37;4.80;;;8.20;99.90;;;;;;5074302;28;20484;-68
2022/11/21 02:08:46;;;;;;;22.13;5.40;;;8.10;99.90;;;;;;5073474;28;20966;-68
2022/11/21 02:11:21;;;;;;;12.07;3.80;;;8.20;99.90;;;;;;5073859;28;20445;-68
2022/11/21 02:13:47;;;;;;;10.90;4.50;;;8.20;99.90;;;;;;5073317;28;20504;-68
2022/11/21 02:16:14;;;;;;;17.57;5.20;;;8.20;99.90;;;;;;5073593;28;20451;-68
2022/11/21 02:18:42;;;;;;;16.03;4.13;;;8.20;99.90;;;;;;5073550;28;20455;-68
2022/11/21 02:21:19;;;;;;;13.43;4.03;;;8.20;99.90;;;;;;5073545;28;20456;-68
2022/11/21 02:23:53;;;;;;;10.70;3.90;;;8.30;99.90;;;;;;5074116;28;20460;-68
2022/11/21 02:26:22;;;;;;;13.27;4.67;;;8.20;99.90;;;;;;5073234;28;20996;-68
2022/11/21 02:28:48;;;;;;;10.60;4.43;;;8.20;99.90;;;;;;5073114;28;20944;-68
2022/11/21 02:31:15;;;;;;;15.83;4.17;;;8.20;99.90;;;;;;5073501;28;20437;-68
2022/11/21 02:33:42;;;;;;;13.13;4.27;;;8.20;99.90;;;;;;5073432;28;20471;-68
2022/11/21 02:36:36;;;;;;;11.53;3.80;;;8.30;99.90;;;;;;5073434;28;20444;-68
2022/11/21 02:39:04;;;;;;;15.10;5.00;;;8.30;99.90;;;;;;5072978;28;20431;-69
2022/11/21 02:41:35;;;;;;;11.67;3.93;;;8.20;99.90;;;;;;5073862;28;20448;-69
2022/11/21 02:44:06;;;;;;;10.27;4.07;;;8.20;99.90;;;;;;5072861;28;20464;-69
2022/11/21 02:46:34;;;;;;;12.17;4.13;;;8.20;99.90;;;;;;5073236;28;20472;-69
2022/11/21 02:49:06;;;;;;;11.83;3.63;;;8.20;99.90;;;;;;5072937;28;20441;-69
2022/11/21 02:51:33;;;;;;;11.57;4.30;;;8.20;99.90;;;;;;5073036;28;20440;-69
2022/11/21 02:53:59;;;;;;;10.03;3.53;;;8.20;99.90;;;;;;5072958;28;20462;-69
2022/11/21 02:56:26;;;;;;;10.53;3.50;;;8.30;99.90;;;;;;5075092;28;20941;-69
2022/11/21 02:58:57;;;;;;;13.70;3.53;;;8.20;99.90;;;;;;5077068;28;20449;-69
2022/11/21 03:01:24;;;;;;;9.90;4.20;;;8.20;99.90;;;;;;5076754;28;20440;-69
2022/11/21 03:03:50;;;;;;;11.90;5.20;;;8.30;99.90;;;;;;5076866;28;20464;-69
2022/11/21 03:06:17;;;;;;;11.97;4.10;;;8.30;99.90;;;;;;5076826;28;20481;-69
2022/11/21 03:08:44;;;;;;;10.67;4.10;;;8.30;99.90;;;;;;5076985;28;20518;-69
2022/11/21 03:11:10;;;;;;;14.40;3.83;;;8.30;99.90;;;;;;5076856;28;20446;-69
2022/11/21 03:13:37;;;;;;;11.83;3.87;;;8.30;99.90;;;;;;5076715;28;20468;-69
2022/11/21 03:16:05;;;;;;;8.87;3.80;;;8.30;99.90;;;;;;5076475;28;20434;-69
2022/11/21 03:18:32;;;;;;;12.30;3.60;;;8.30;99.90;;;;;;5077337;28;20536;-69
2022/11/21 03:20:59;;;;;;;9.07;3.13;;;8.30;99.90;;;;;;5076261;28;20459;-69
2022/11/21 03:23:26;;;;;;;15.13;3.60;;;8.30;99.90;;;;;;5076446;28;20468;-69
2022/11/21 03:25:52;;;;;;;16.13;3.70;;;8.20;99.90;;;;;;5076296;28;20482;-68
2022/11/21 03:28:19;;;;;;;13.03;4.13;;;8.20;99.90;;;;;;5076560;28;20455;-69
2022/11/21 03:30:46;;;;;;;8.33;3.00;;;8.20;99.90;;;;;;5076009;28;20814;-69
2022/11/21 03:33:15;;;;;;;10.27;3.40;;;8.20;99.90;;;;;;5075945;28;20999;-68
2022/11/21 03:35:42;;;;;;;9.60;3.07;;;8.20;99.90;;;;;;5076276;28;20448;-68
2022/11/21 03:38:08;;;;;;;11.37;3.00;;;8.20;99.90;;;;;;5075954;28;20848;-69
2022/11/21 03:40:35;;;;;;;5.70;2.73;;;8.20;99.90;;;;;;5076287;28;20436;-69
2022/11/21 03:43:05;;;;;;;11.07;3.70;;;8.20;99.90;;;;;;5076006;28;20477;-69
2022/11/21 03:45:32;;;;;;;8.83;3.17;;;8.20;99.90;;;;;;5076198;28;20547;-68
2022/11/21 03:47:58;;;;;;;10.40;3.53;;;8.20;99.90;;;;;;5076000;28;20507;-69
2022/11/21 03:50:26;;;;;;;10.73;3.17;;;8.30;99.90;;;;;;5076052;28;20434;-68
2022/11/21 03:52:53;;;;;;;7.20;3.03;;;8.30;99.90;;;;;;5075994;28;20518;-68
2022/11/21 03:55:20;;;;;;;6.60;2.70;;;8.30;99.90;;;;;;5075797;28;20940;-67
2022/11/21 03:57:47;;;;;;;10.80;2.90;;;8.20;99.90;;;;;;5075926;28;20449;-67
2022/11/21 04:00:15;;;;;;;6.10;2.40;;;8.20;99.90;;;;;;5075960;28;20798;-68
2022/11/21 04:02:42;;;;;;;9.90;3.53;;;8.20;99.90;;;;;;5075780;28;20461;-68
2022/11/21 04:05:09;;;;;;;12.23;3.87;;;8.30;99.90;;;;;;5075814;28;20445;-68
2022/11/21 04:07:37;;;;;;;7.97;3.40;;;8.20;99.90;;;;;;5075308;28;20473;-69
2022/11/21 04:10:04;;;;;;;5.73;2.80;;;8.20;99.90;;;;;;5075424;28;20838;-69
2022/11/21 04:12:31;;;;;;;15.00;3.43;;;8.20;99.90;;;;;;5076682;28;20875;-69
2022/11/21 04:14:58;;;;;;;12.40;3.97;;;8.20;99.90;;;;;;5075744;28;20437;-69
2022/11/21 04:17:24;;;;;;;8.27;2.40;;;8.20;99.90;;;;;;5075580;28;20448;-69
2022/11/21 04:19:51;;;;;;;7.43;2.80;;;8.10;99.90;;;;;;5075515;28;20449;-68
2022/11/21 04:22:19;;;;;;;6.60;3.33;;;8.10;99.90;;;;;;5075421;28;20478;-68
2022/11/21 04:24:47;;;;;;;7.63;2.57;;;8.10;99.90;;;;;;5075469;28;20433;-68
2022/11/21 04:27:13;;;;;;;5.03;2.60;;;8.20;99.90;;;;;;5075321;28;20488;-69
2022/11/21 04:29:40;;;;;;;6.70;2.90;;;8.10;99.90;;;;;;5075328;28;20452;-68
2022/11/21 04:32:07;;;;;;;5.10;3.03;;;8.20;99.90;;;;;;5075339;28;20472;-68
2022/11/21 04:34:33;;;;;;;10.30;4.60;;;8.20;99.90;;;;;;5075179;28;20450;-69
2022/11/21 04:37:00;;;;;;;7.20;3.33;;;8.20;99.90;;;;;;5074809;28;20465;-68
2022/11/21 04:39:27;;;;;;;10.53;4.13;;;8.20;99.90;;;;;;5075192;28;20453;-68
2022/11/21 04:41:55;;;;;;;8.83;3.50;;;8.20;99.90;;;;;;5074924;28;20935;-69
2022/11/21 04:44:21;;;;;;;6.73;3.80;;;8.20;99.90;;;;;;5075238;28;20456;-68
2022/11/21 04:46:48;;;;;;;5.73;4.00;;;8.20;99.90;;;;;;5074995;28;20485;-68
2022/11/21 04:49:15;;;;;;;7.10;3.73;;;8.20;99.90;;;;;;5074611;28;20811;-68
2022/11/21 04:51:41;;;;;;;7.57;4.93;;;8.10;99.90;;;;;;5074910;28;20455;-68
2022/11/21 04:54:09;;;;;;;7.07;4.60;;;8.10;99.90;;;;;;5074771;28;20480;-68
2022/11/21 04:56:37;;;;;;;6.50;4.40;;;8.10;99.90;;;;;;5074550;28;20519;-68
2022/11/21 04:59:05;;;;;;;10.47;4.00;;;8.10;99.90;;;;;;5074833;28;20488;-68
2022/11/21 05:01:31;;;;;;;15.07;5.60;;;8.10;99.90;;;;;;5074292;28;20445;-68
2022/11/21 05:03:58;;;;;;;10.60;5.30;;;8.10;99.90;;;;;;5074623;28;20470;-68
2022/11/21 05:06:25;;;;;;;7.87;5.57;;;8.10;99.90;;;;;;5074570;28;20464;-68
2022/11/21 05:08:51;;;;;;;12.10;6.13;;;8.10;99.90;;;;;;5074518;28;20441;-68
2022/11/21 05:14:03;;;;;;;10.60;6.57;;;8.10;99.90;;;;;;5074548;28;20520;-68
2022/11/21 05:16:32;;;;;;;12.43;6.87;;;8.10;99.90;;;;;;5074406;28;20453;-69
2022/11/21 05:18:59;;;;;;;14.97;7.70;;;8.20;99.90;;;;;;5073456;28;20449;-69
2022/11/21 05:21:25;;;;;;;12.03;7.20;;;8.10;99.90;;;;;;5074356;28;20441;-69
2022/11/21 05:23:53;;;;;;;10.93;7.00;;;8.10;99.90;;;;;;5074178;28;20465;-69
2022/11/21 05:26:20;;;;;;;15.30;7.97;;;8.10;99.90;;;;;;5074522;28;20524;-68
2022/11/21 05:28:47;;;;;;;11.80;8.40;;;8.10;99.90;;;;;;5076274;28;20449;-68
2022/11/21 05:31:14;;;;;;;15.20;9.07;;;8.10;99.90;;;;;;5074494;28;20477;-68
2022/11/21 05:33:42;;;;;;;16.77;9.13;;;8.10;99.90;;;;;;5074216;28;20472;-68
2022/11/21 05:36:08;;;;;;;12.43;9.77;;;8.10;99.90;;;;;;5073917;28;20448;-68
2022/11/21 05:38:35;;;;;;;13.43;9.23;;;8.10;99.90;;;;;;5074049;28;20429;-69
2022/11/21 05:41:02;;;;;;;13.37;10.30;;;8.10;99.90;;;;;;5074117;28;20457;-69
2022/11/21 05:43:46;;;;;;;18.90;12.43;;;8.10;99.90;;;;;;5074039;28;20477;-67
2022/11/21 05:46:13;;;;;;;15.63;11.13;;;8.10;99.90;;;;;;5074033;28;20435;-67
2022/11/21 05:48:40;;;;;;;15.00;10.40;;;8.10;99.90;;;;;;5074017;28;20465;-67
2022/11/21 05:51:08;;;;;;;16.87;11.23;;;8.10;99.90;;;;;;5074030;28;20429;-67
2022/11/21 05:53:35;;;;;;;19.20;12.00;;;8.10;99.90;;;;;;5073853;28;20501;-67
2022/11/21 05:56:05;;;;;;;16.47;11.80;;;8.10;99.90;;;;;;5074152;28;20926;-67
2022/11/21 05:58:31;;;;;;;21.70;13.37;;;8.20;99.90;;;;;;5073696;28;20813;-67
2022/11/21 06:00:58;;;;;;;14.53;12.27;;;8.20;99.90;;;;;;5073822;28;20449;-67
2022/11/21 06:03:29;;;;;;;15.23;13.43;;;8.20;99.90;;;;;;5073738;28;20473;-67
2022/11/21 06:06:01;;;;;;;17.40;12.97;;;8.20;99.90;;;;;;5074297;28;20473;-67
2022/11/21 06:08:31;;;;;;;19.30;13.50;;;8.30;99.90;;;;;;5073518;28;20492;-67
2022/11/21 06:10:58;;;;;;;15.40;12.00;;;8.20;99.90;;;;;;5073397;28;20451;-67
2022/11/21 06:13:24;;;;;;;16.80;12.20;;;8.30;99.90;;;;;;5073601;28;20472;-67
2022/11/21 06:15:53;;;;;;;16.90;11.00;;;8.20;99.90;;;;;;5073190;28;20942;-67
2022/11/21 06:18:20;;;;;;;13.23;10.60;;;8.20;99.90;;;;;;5073583;28;20435;-67
2022/11/21 06:20:47;;;;;;;14.90;9.87;;;8.20;99.90;;;;;;5073560;28;20425;-67
2022/11/21 06:23:14;;;;;;;13.13;9.20;;;8.20;99.90;;;;;;5073127;28;20476;-68
2022/11/21 06:25:43;;;;;;;11.53;8.97;;;8.10;99.90;;;;;;5073201;28;20921;-67
2022/11/21 06:28:09;;;;;;;15.07;9.10;;;8.10;99.90;;;;;;5073406;28;20505;-68
2022/11/21 06:30:37;;;;;;;18.67;11.07;;;8.20;99.90;;;;;;5073267;28;20476;-67
2022/11/21 06:33:04;;;;;;;15.63;10.10;;;8.20;99.90;;;;;;5073496;28;20465;-68
2022/11/21 06:35:31;;;;;;;11.20;8.90;;;8.20;99.90;;;;;;5073276;28;20456;-67
2022/11/21 06:37:58;;;;;;;12.80;10.43;;;8.10;99.90;;;;;;5073008;28;20456;-68
2022/11/21 06:40:25;;;;;;;10.53;9.03;;;8.10;99.90;;;;;;5073364;28;20448;-68
2022/11/21 06:42:53;;;;;;;13.23;9.30;;;8.10;99.90;;;;;;5073305;28;20480;-68
2022/11/21 06:45:20;;;;;;;12.17;8.47;;;8.10;99.90;;;;;;5073307;28;20455;-68
2022/11/21 06:47:47;;;;;;;10.30;8.03;;;8.10;99.90;;;;;;5073114;28;20488;-68
2022/11/21 06:50:14;;;;;;;11.30;7.93;;;8.10;99.90;;;;;;5073257;28;20440;-68
2022/11/21 06:52:40;;;;;;;12.70;8.70;;;8.00;99.90;;;;;;5073263;28;20469;-67
2022/11/21 06:55:08;;;;;;;12.50;9.17;;;8.00;99.90;;;;;;5073257;28;20429;-67
2022/11/21 06:57:35;;;;;;;12.23;8.63;;;8.00;99.90;;;;;;5072961;28;20455;-67
2022/11/21 07:00:04;;;;;;;13.30;8.83;;;8.00;99.90;;;;;;5073309;28;20773;-67
2022/11/21 07:02:31;;;;;;;12.90;7.87;;;8.00;99.90;;;;;;5073127;28;20480;-67
2022/11/21 07:04:58;;;;;;;12.80;7.63;;;8.00;99.90;;;;;;5073059;28;20441;-67
2022/11/21 07:07:25;;;;;;;9.47;6.80;;;8.10;99.90;;;;;;5072840;28;20503;-67
2022/11/21 07:09:51;;;;;;;13.77;7.43;;;8.10;99.90;;;;;;5073258;28;20447;-67
2022/11/21 07:15:06;;;;;;;11.57;7.23;;;8.00;99.90;;;;;;5073035;28;20405;-67
2022/11/21 07:17:32;;;;;;;12.27;6.73;;;8.10;99.90;;;;;;5072547;28;20807;-67
2022/11/21 07:19:59;;;;;;;12.80;7.47;;;8.00;99.90;;;;;;5072840;28;20962;-67
2022/11/21 07:22:26;;;;;;;13.37;6.67;;;8.10;99.90;;;;;;5072520;28;21021;-67
2022/11/21 07:24:52;;;;;;;12.60;6.87;;;8.10;99.90;;;;;;5073117;28;20445;-67
2022/11/21 07:27:19;;;;;;;9.87;7.03;;;8.10;99.90;;;;;;5072972;28;20491;-67
2022/11/21 07:29:46;;;;;;;8.90;6.67;;;8.10;99.90;;;;;;5072913;28;20445;-67
2022/11/21 07:32:14;;;;;;;12.70;6.97;;;8.10;99.90;;;;;;5072909;28;20473;-67
2022/11/21 07:34:41;;;;;;;7.60;6.30;;;8.10;99.90;;;;;;5073065;28;20479;-67
2022/11/21 07:37:07;;;;;;;7.13;6.13;;;8.20;99.90;;;;;;5072597;28;20472;-67
2022/11/21 07:39:34;;;;;;;7.73;6.00;;;8.20;99.90;;;;;;5073141;28;20444;-67
2022/11/21 07:42:01;;;;;;;9.50;6.30;;;8.20;99.90;;;;;;5075733;28;21061;-67
2022/11/21 07:44:28;;;;;;;9.13;7.60;;;8.30;99.90;;;;;;5079069;28;20443;-67
2022/11/21 07:46:55;;;;;;;9.53;6.10;;;8.30;99.90;;;;;;5076644;28;20935;-67
2022/11/21 07:49:23;;;;;;;8.33;7.00;;;8.20;99.90;;;;;;5076649;28;20502;-67
2022/11/21 07:51:50;;;;;;;14.00;8.47;;;8.20;99.90;;;;;;5076511;28;20449;-67
2022/11/21 07:54:16;;;;;;;16.97;8.27;;;8.20;99.90;;;;;;5076864;28;20456;-67
2022/11/21 07:56:43;;;;;;;7.83;7.00;;;8.20;99.90;;;;;;5077059;28;20448;-67
2022/11/21 07:59:10;;;;;;;12.80;6.83;;;8.20;99.90;;;;;;5076236;28;20804;-68
2022/11/21 08:01:37;;;;;;;8.23;6.80;;;8.30;99.90;;;;;;5076093;28;20453;-68
2022/11/21 08:04:04;;;;;;;9.30;6.80;;;8.30;99.90;;;;;;5075687;28;20979;-67
2022/11/21 08:06:32;;;;;;;8.07;6.43;;;8.40;99.90;;;;;;5075634;28;20976;-67
2022/11/21 08:08:58;;;;;;;10.83;6.90;;;8.50;99.90;;;;;;5075665;28;20852;-67
2022/11/21 08:11:25;;;;;;;8.03;6.77;;;8.50;99.90;;;;;;5075877;28;20447;-67
2022/11/21 08:13:52;;;;;;;8.23;7.43;;;8.50;99.90;;;;;;5075938;28;20473;-68
2022/11/21 08:16:19;;;;;;;8.83;7.63;;;8.60;99.90;;;;;;5075805;28;20450;-67
2022/11/21 08:18:46;;;;;;;11.80;8.83;;;8.60;99.90;;;;;;5075687;28;20862;-67
2022/11/21 08:21:12;;;;;;;11.83;8.43;;;8.60;99.90;;;;;;5075716;28;20967;-67
2022/11/21 08:23:40;;;;;;;10.30;7.67;;;8.60;99.90;;;;;;5075753;28;20462;-68
2022/11/21 08:26:09;;;;;;;14.00;8.07;;;8.60;99.90;;;;;;5075925;28;20432;-68
2022/11/21 08:28:36;;;;;;;11.00;8.07;;;8.60;99.90;;;;;;5077647;28;20598;-67
2022/11/21 08:31:04;;;;;;;12.47;8.40;;;8.60;99.90;;;;;;5078293;28;20471;-67
2022/11/21 08:33:31;;;;;;;17.80;9.70;;;8.60;99.90;;;;;;5077117;28;20492;-67
2022/11/21 08:35:58;;;;;;;14.43;9.93;;;8.60;99.90;;;;;;5076290;28;20440;-68
2022/11/21 08:38:25;;;;;;;15.00;8.97;;;8.60;99.90;;;;;;5075497;28;20436;-67
2022/11/21 08:43:34;;;;;;;11.83;8.43;;;8.70;99.90;;;;;;5074202;28;20898;-66
2022/11/21 08:46:00;;;;;;;16.20;9.60;;;8.70;99.90;;;;;;5075144;28;20927;-66
2022/11/21 08:48:27;;;;;;;12.13;8.27;;;8.80;99.90;;;;;;5075332;28;20479;-66
2022/11/21 08:50:56;;;;;;;12.17;9.00;;;8.80;99.90;;;;;;5075070;28;20465;-67
2022/11/21 08:53:23;;;;;;;15.50;8.40;;;8.80;99.90;;;;;;5073871;28;20470;-67
2022/11/21 08:55:50;;;;;;;16.73;8.07;;;8.80;99.90;;;;;;5075406;28;20501;-67
2022/11/21 08:58:18;;;;;;;15.00;7.97;;;8.90;99.90;;;;;;5074954;28;20426;-67
2022/11/21 09:00:45;;;;;;;11.70;8.60;;;8.90;99.90;;;;;;5074547;28;20928;-67
2022/11/21 09:03:11;;;;;;;16.83;7.90;;;9.00;99.90;;;;;;5074848;28;20470;-67
2022/11/21 09:05:38;;;;;;;15.90;8.40;;;9.00;99.90;;;;;;5074581;28;20945;-67
2022/11/21 09:08:05;;;;;;;15.67;8.23;;;9.10;99.90;;;;;;5074666;28;20466;-67
2022/11/21 09:10:32;;;;;;;16.10;7.07;;;9.10;99.90;;;;;;5074814;28;20450;-67
2022/11/21 09:12:58;;;;;;;10.70;7.10;;;9.20;99.90;;;;;;5074744;28;20487;-67
2022/11/21 09:18:22;;;;;;;15.57;7.30;;;9.30;99.90;;;;;;5012780;28;21024;-67
2022/11/21 09:20:49;;;;;;;10.97;7.60;;;9.40;99.90;;;;;;5059623;28;20457;-67
2022/11/21 09:23:17;;;;;;;12.23;7.67;;;9.50;99.90;;;;;;5074117;28;20881;-67
2022/11/21 09:25:44;;;;;;;8.90;7.47;;;9.50;99.90;;;;;;5074453;28;20432;-67
2022/11/21 09:28:12;;;;;;;11.50;6.77;;;9.60;99.90;;;;;;5074396;28;20479;-67
2022/11/21 09:30:42;;;;;;;12.73;7.73;;;9.80;99.90;;;;;;5074044;28;20433;-67
2022/11/21 09:33:11;;;;;;;14.07;7.20;;;9.90;99.90;;;;;;5074183;28;20467;-67
2022/11/21 09:35:38;;;;;;;13.03;6.70;;;10.00;99.10;;;;;;5074094;28;20440;-67
2022/11/21 09:38:05;;;;;;;9.47;6.30;;;10.00;98.70;;;;;;5074292;28;20448;-67
2022/11/21 09:40:33;;;;;;;11.33;6.30;;;10.20;98.50;;;;;;5074153;28;20431;-67
2022/11/21 09:43:11;;;;;;;10.97;5.73;;;10.20;98.10;;;;;;5073776;28;20983;-67
2022/11/21 09:45:46;;;;;;;11.00;6.40;;;10.20;97.70;;;;;;5073786;28;20439;-67
2022/11/21 09:48:17;;;;;;;10.17;6.40;;;10.20;97.60;;;;;;5073848;28;20465;-67
2022/11/21 09:50:48;;;;;;;14.03;6.33;;;10.20;97.30;;;;;;5073546;28;20436;-67
2022/11/21 09:53:19;;;;;;;8.43;4.80;;;10.20;97.40;;;;;;5073631;28;20507;-67
2022/11/21 09:55:49;;;;;;;9.50;6.13;;;10.30;97.40;;;;;;5073849;28;20439;-67
2022/11/21 09:58:25;;;;;;;13.40;4.93;;;10.30;97.40;;;;;;5073680;28;20444;-68
2022/11/21 10:00:53;;;;;;;8.50;6.17;;;10.40;97.20;;;;;;5073843;28;20421;-67
2022/11/21 10:03:23;;;;;;;9.70;5.33;;;10.50;97.00;;;;;;5073658;28;20468;-67
2022/11/21 10:05:55;;;;;;;7.70;4.37;;;10.60;96.90;;;;;;5073061;28;20938;-68
2022/11/21 10:08:33;;;;;;;9.63;5.70;;;10.60;96.90;;;;;;5073246;28;21067;-68
2022/11/21 10:11:11;;;;;;;13.67;4.60;;;10.70;96.60;;;;;;5073345;28;20907;-67
2022/11/21 10:13:49;;;;;;;8.07;3.77;;;10.70;96.20;;;;;;5073761;28;20483;-68
2022/11/21 10:16:26;;;;;;;11.23;3.70;;;10.80;96.00;;;;;;5073243;28;20435;-68
2022/11/21 10:19:14;;;;;;;12.53;4.47;;;10.90;95.90;;;;;;5073315;28;20514;-68
2022/11/21 10:22:01;;;;;;;8.00;4.00;;;10.90;95.60;;;;;;5073533;28;20435;-68
2022/11/21 10:24:39;;;;;;;8.00;3.77;;;10.90;95.20;;;;;;5059892;28;20539;-68
2022/11/21 10:27:13;;;;;;;6.93;3.50;;;10.90;95.10;;;;;;5073644;28;20538;-68
2022/11/21 10:29:45;;;;;;;12.07;3.73;;;10.90;94.60;;;;;;5073739;28;20473;-68
2022/11/21 10:32:22;;;;;;;8.10;3.33;;;10.80;94.40;;;;;;5073666;28;20480;-68
2022/11/21 10:34:51;;;;;;;3.40;2.57;;;10.80;94.80;;;;;;5073966;28;20429;-68
2022/11/21 10:37:31;;;;;;;6.37;3.07;;;10.80;94.90;;;;;;5073520;28;20471;-68
2022/11/21 10:40:05;;;;;;;7.67;3.17;;;10.90;95.00;;;;;;5073188;28;20429;-68
2022/11/21 10:42:36;;;;;;;4.33;2.80;;;11.10;95.10;;;;;;5073211;28;20987;-68
2022/11/21 10:45:15;;;;;;;7.57;2.80;;;11.30;94.40;;;;;;5075510;28;20441;-68
2022/11/21 10:47:44;;;;;;;7.17;3.00;;;11.50;94.40;;;;;;5073752;28;20421;-68
2022/11/21 10:50:24;;;;;;;5.47;3.67;;;11.60;93.90;;;;;;5073298;28;20444;-68
2022/11/21 10:54:31;;;;;;;8.30;3.90;;;11.80;93.40;;;;;;5072841;28;20468;-68
2022/11/21 10:56:00;;;;;;;5.47;3.30;;;12.00;93.10;;;;;;5072844;28;20545;-70
2022/11/21 10:58:36;;;;;;;9.77;3.50;;;12.30;92.70;;;;;;5073292;28;20433;-68
2022/11/21 11:01:02;;;;;;;5.20;2.93;;;12.50;92.30;;;;;;5072850;28;20965;-67
2022/11/21 11:03:32;;;;;;;4.93;2.63;;;12.90;91.90;;;;;;5072977;28;20498;-67
2022/11/21 11:05:59;;;;;;;5.33;2.73;;;13.40;91.30;;;;;;5073352;28;20455;-68
2022/11/21 11:08:27;;;;;;;7.67;3.17;;;13.90;90.30;;;;;;5073008;28;20472;-68
2022/11/21 11:11:06;;;;;;;4.70;1.90;;;14.30;86.70;;;;;;5073056;28;20491;-68
2022/11/21 11:13:48;;;;;;;6.47;2.20;;;14.80;84.40;;;;;;5073498;28;20480;-68
2022/11/21 11:16:17;;;;;;;6.13;2.47;;;15.30;81.00;;;;;;5073475;28;20425;-68
2022/11/21 11:18:54;;;;;;;8.10;2.83;;;15.70;77.50;;;;;;5076709;28;20432;-68
2022/11/21 11:21:23;;;;;;;7.87;2.23;;;16.00;73.90;;;;;;5076607;28;20432;-68
2022/11/21 11:23:52;;;;;;;5.77;2.00;;;16.30;71.30;;;;;;5076347;28;20473;-68
2022/11/21 11:26:22;;;;;;;5.23;2.00;;;16.50;68.80;;;;;;5076378;28;20912;-68
2022/11/21 11:28:50;;;;;;;3.20;1.57;;;16.60;66.40;;;;;;5076465;28;20461;-69
2022/11/21 11:31:17;;;;;;;5.13;2.23;;;16.60;65.80;;;;;;5076760;28;20436;-68
2022/11/21 11:33:53;;;;;;;6.20;2.30;;;16.70;66.10;;;;;;5077748;28;20472;-68
2022/11/21 11:36:36;;;;;;;5.87;2.40;;;16.80;65.80;;;;;;5076361;28;20562;-68
2022/11/21 11:39:14;;;;;;;4.13;1.60;;;17.00;62.40;;;;;;5076523;28;20437;-68
2022/11/21 11:48:18;;;;;;;3.80;1.57;;;17.50;58.20;;;;;;5076261;28;20512;-68
2022/11/21 11:50:50;;;;;;;7.90;2.20;;;17.70;57.20;;;;;;5075833;28;20429;-69
2022/11/21 11:53:20;;;;;;;3.30;2.10;;;17.80;56.60;;;;;;5076269;28;20500;-68
2022/11/21 11:55:51;;;;;;;5.17;2.07;;;17.90;56.70;;;;;;5076153;28;20434;-69
2022/11/21 11:58:25;;;;;;;3.67;1.63;;;18.00;56.00;;;;;;5076018;28;20436;-68
2022/11/21 12:00:59;;;;;;;6.13;2.57;;;18.10;55.70;;;;;;5076250;28;20430;-68
2022/11/21 12:03:34;;;;;;;4.07;2.33;;;18.30;55.20;;;;;;5075882;28;20470;-68
2022/11/21 12:06:05;;;;;;;3.60;1.73;;;18.40;53.70;;;;;;5076103;28;20429;-69
2022/11/21 12:08:43;;;;;;;4.20;1.87;;;18.40;52.90;;;;;;5075861;28;20564;-68
2022/11/21 12:15:47;;;;;;;6.47;2.03;;;18.60;52.30;;;;;;5075529;28;20444;-68
2022/11/21 12:17:08;;;;;;;5.47;1.70;;;18.50;51.80;;;;;;5061466;28;20907;-68
2022/11/21 12:19:37;;;;;;;4.23;1.97;;;18.50;51.60;;;;;;5075433;28;20941;-69
2022/11/21 12:22:07;;;;;;;10.70;2.40;;;18.30;52.00;;;;;;5075842;28;20434;-68
2022/11/21 12:24:34;;;;;;;4.20;2.20;;;17.90;52.30;;;;;;5075428;28;20900;-69
2022/11/21 12:27:16;;;;;;;6.33;2.10;;;17.50;53.30;;;;;;5075674;28;20456;-69
2022/11/21 12:29:57;;;;;;;7.30;2.83;;;17.10;54.20;;;;;;5075899;28;20475;-69
2022/11/21 12:32:40;;;;;;;3.90;2.00;;;16.80;54.90;;;;;;5076205;28;20809;-68
2022/11/21 12:35:25;;;;;;;4.20;1.67;;;16.50;55.40;;;;;;5075211;28;20909;-68
2022/11/21 12:38:02;;;;;;;5.77;2.43;;;16.20;56.20;;;;;;5074971;28;20464;-70
2022/11/21 12:40:45;;;;;;;6.30;2.47;;;16.00;57.50;;;;;;5074917;28;20515;-68
2022/11/21 12:43:22;;;;;;;7.43;2.40;;;15.80;58.30;;;;;;5075244;28;20465;-68
2022/11/21 12:45:55;;;;;;;3.97;1.67;;;15.70;58.40;;;;;;5075503;28;20464;-68
2022/11/21 12:54:46;;;;;;;4.63;1.80;;;15.30;58.70;;;;;;5074644;28;20408;-68
2022/11/21 12:57:14;;;;;;;4.93;2.07;;;15.30;59.00;;;;;;5074597;28;20904;-68
2022/11/21 12:59:50;;;;;;;3.43;1.47;;;15.30;58.30;;;;;;5074815;28;20422;-68
2022/11/21 13:02:28;;;;;;;5.37;1.83;;;15.30;58.50;;;;;;5074821;28;20479;-68
2022/11/21 13:04:57;;;;;;;5.47;1.87;;;15.20;58.40;;;;;;5075547;28;20421;-68
2022/11/21 13:07:28;;;;;;;7.37;4.20;;;15.10;58.10;;;;;;5074796;28;20426;-68
2022/11/21 13:09:58;;;;;;;4.30;2.20;;;14.90;58.20;;;;;;5074766;28;20518;-69
2022/11/21 13:12:32;;;;;;;6.87;1.97;;;14.80;58.90;;;;;;5075223;28;20473;-68
2022/11/21 13:15:08;;;;;;;4.30;1.40;;;14.60;59.60;;;;;;5075105;28;20424;-68
2022/11/21 13:17:44;;;;;;;3.40;1.50;;;14.40;60.60;;;;;;5075420;28;20443;-69
2022/11/21 13:20:21;;;;;;;2.97;1.47;;;14.30;61.80;;;;;;5074779;28;20431;-69
2022/11/21 13:22:50;;;;;;;2.77;1.40;;;14.10;62.30;;;;;;5074476;28;20480;-69
2022/11/21 13:25:38;;;;;;;6.30;1.43;;;14.00;62.20;;;;;;5074466;28;20443;-68